Time;durP1;ratioP1;P1;durP2;ratioP2;P2;SDS_P1;SDS_P2;PMS_P1;PMS_P2;Temp;Humidity;BMP_temperature;BMP_pressure;BME280_temperature;BME280_humidity;BME280_pressure;Samples;Min_cycle;Max_cycle;Signal;HPM_P1;HPM_P2
2022/05/03 00:02:25;;;;;;;4.20;3.20;;;9.70;99.90;;;;;;5072628;28;20447;-46
2022/05/03 00:05:02;;;;;;;6.70;3.43;;;9.70;99.90;;;;;;5131380;22;20495;-44
2022/05/03 00:07:38;;;;;;;3.90;3.50;;;10.00;99.90;;;;;;5074068;28;20439;-43
2022/05/03 00:10:07;;;;;;;5.60;3.13;;;10.10;99.90;;;;;;5073905;28;21020;-44
2022/05/03 00:12:40;;;;;;;2.80;2.50;;;10.10;99.90;;;;;;5072795;28;20533;-47
2022/05/03 00:15:08;;;;;;;2.73;2.40;;;9.80;99.90;;;;;;5072640;28;20464;-43
2022/05/03 00:17:36;;;;;;;3.33;2.40;;;9.90;99.90;;;;;;5072746;28;20535;-44
2022/05/03 00:20:04;;;;;;;3.73;2.47;;;10.10;99.90;;;;;;5072599;28;20860;-43
2022/05/03 00:22:32;;;;;;;3.03;2.30;;;10.20;99.90;;;;;;5072605;28;20441;-43
2022/05/03 00:24:59;;;;;;;3.10;2.00;;;10.20;99.90;;;;;;5072840;28;20522;-44
2022/05/03 00:27:27;;;;;;;3.00;2.60;;;10.30;99.90;;;;;;5073597;28;20447;-43
2022/05/03 00:29:57;;;;;;;3.00;2.43;;;10.10;99.90;;;;;;5073926;28;20889;-44
2022/05/03 00:32:26;;;;;;;3.03;2.57;;;10.10;99.90;;;;;;5072459;28;20453;-44
2022/05/03 00:34:54;;;;;;;5.30;2.60;;;10.20;99.90;;;;;;5072508;28;20551;-47
2022/05/03 00:37:21;;;;;;;3.23;2.73;;;10.20;99.90;;;;;;5072984;28;20456;-43
2022/05/03 00:39:48;;;;;;;4.23;2.53;;;10.20;99.90;;;;;;5073515;28;20448;-45
2022/05/03 00:42:19;;;;;;;3.20;2.90;;;10.20;99.90;;;;;;5072618;28;20483;-43
2022/05/03 00:45:00;;;;;;;3.23;2.83;;;10.20;99.90;;;;;;5072275;28;21056;-44
2022/05/03 00:47:42;;;;;;;3.10;2.80;;;10.10;99.90;;;;;;5072626;28;20469;-43
2022/05/03 00:50:12;;;;;;;4.50;2.70;;;10.10;99.90;;;;;;5072377;28;20568;-43
2022/05/03 00:52:46;;;;;;;3.40;2.30;;;10.10;99.90;;;;;;5073313;28;20447;-44
2022/05/03 00:55:28;;;;;;;5.13;3.37;;;10.20;99.90;;;;;;5072862;28;20503;-45
2022/05/03 00:58:08;;;;;;;3.23;2.60;;;10.30;99.90;;;;;;5072312;28;20447;-44
2022/05/03 01:00:50;;;;;;;3.13;2.83;;;10.20;99.90;;;;;;5071675;28;20995;-43
2022/05/03 01:03:19;;;;;;;3.00;2.70;;;10.10;99.90;;;;;;5071481;28;20523;-48
2022/05/03 01:05:53;;;;;;;3.43;2.43;;;10.10;99.90;;;;;;5072401;28;20436;-44
2022/05/03 01:08:30;;;;;;;3.27;2.80;;;9.80;99.90;;;;;;5071791;28;20856;-44
2022/05/03 01:11:13;;;;;;;3.33;2.73;;;9.60;99.90;;;;;;5072009;28;20976;-44
2022/05/03 01:13:46;;;;;;;3.93;2.87;;;9.70;99.90;;;;;;5072574;28;21000;-45
2022/05/03 01:16:24;;;;;;;3.70;3.13;;;9.70;99.90;;;;;;5072164;28;20476;-45
2022/05/03 01:18:55;;;;;;;3.10;2.80;;;9.50;99.90;;;;;;5071932;28;20493;-41
2022/05/03 01:21:40;;;;;;;3.67;2.87;;;9.60;99.90;;;;;;5071734;28;20976;-47
2022/05/03 01:24:26;;;;;;;2.77;2.53;;;9.60;99.90;;;;;;5071333;28;20477;-43
2022/05/03 01:27:17;;;;;;;3.13;2.77;;;9.70;99.90;;;;;;5071474;28;20979;-44
2022/05/03 01:29:46;;;;;;;2.70;2.50;;;9.80;99.90;;;;;;5071474;28;20743;-44
2022/05/03 01:32:18;;;;;;;3.67;2.53;;;9.80;99.90;;;;;;5072217;28;20517;-43
2022/05/03 01:34:47;;;;;;;3.23;2.67;;;9.90;99.90;;;;;;5072462;28;20529;-45
2022/05/03 01:37:51;;;;;;;3.20;2.30;;;9.90;99.90;;;;;;5071425;28;20447;-46
2022/05/03 01:40:27;;;;;;;2.80;2.07;;;9.80;99.90;;;;;;5071366;28;20976;-44
2022/05/03 01:43:08;;;;;;;3.80;3.20;;;9.80;99.90;;;;;;5071009;28;20934;-45
2022/05/03 01:45:42;;;;;;;3.70;3.30;;;9.70;99.90;;;;;;5071380;28;20451;-43
2022/05/03 01:50:18;;;;;;;2.53;2.33;;;9.80;99.90;;;;;;5071068;28;20442;-44
2022/05/03 01:51:24;;;;;;;2.90;2.60;;;9.80;99.90;;;;;;5071491;28;20472;-45
2022/05/03 01:54:03;;;;;;;3.90;2.90;;;9.70;99.90;;;;;;5071746;28;21028;-43
2022/05/03 01:56:40;;;;;;;4.10;2.90;;;9.70;99.90;;;;;;5071097;28;20462;-43
2022/05/03 01:59:25;;;;;;;3.20;2.57;;;9.70;99.90;;;;;;5070918;28;20873;-44
2022/05/03 02:01:57;;;;;;;3.90;2.67;;;9.70;99.90;;;;;;5070498;28;20963;-44
2022/05/03 02:04:51;;;;;;;2.93;2.50;;;9.70;99.90;;;;;;5070553;28;20844;-47
2022/05/03 02:07:31;;;;;;;2.70;2.40;;;9.60;99.90;;;;;;5068387;28;20535;-44
2022/05/03 02:10:07;;;;;;;4.23;2.80;;;9.30;99.90;;;;;;5070757;28;21101;-44
2022/05/03 02:12:35;;;;;;;3.67;3.10;;;9.10;99.90;;;;;;5070759;28;20983;-43
2022/05/03 02:15:05;;;;;;;3.80;2.93;;;9.30;99.90;;;;;;5071153;28;20493;-46
2022/05/03 02:17:52;;;;;;;5.70;3.20;;;9.50;99.90;;;;;;5070562;28;20443;-44
2022/05/03 02:20:39;;;;;;;3.20;2.90;;;9.60;99.90;;;;;;5070619;28;20475;-45
2022/05/03 02:23:18;;;;;;;2.57;2.37;;;9.70;99.90;;;;;;5070621;28;20439;-46
2022/05/03 02:26:11;;;;;;;3.10;2.70;;;9.70;99.90;;;;;;5070516;28;20451;-43
2022/05/03 02:28:43;;;;;;;3.60;3.40;;;9.70;99.90;;;;;;5057043;28;20451;-44
2022/05/03 02:31:14;;;;;;;3.60;2.67;;;9.50;99.90;;;;;;5070900;28;20493;-43
2022/05/03 02:33:49;;;;;;;3.30;2.50;;;9.40;99.90;;;;;;5071390;28;20552;-46
2022/05/03 02:36:18;;;;;;;3.33;3.10;;;9.30;99.90;;;;;;5070672;28;20439;-43
2022/05/03 02:38:53;;;;;;;2.83;2.43;;;9.10;99.90;;;;;;5070649;28;20486;-44
2022/05/03 02:41:23;;;;;;;3.17;2.60;;;9.00;99.90;;;;;;5070444;28;20501;-45
2022/05/03 02:43:52;;;;;;;4.20;3.00;;;8.90;99.90;;;;;;5070175;28;20499;-43
2022/05/03 02:46:39;;;;;;;2.90;2.40;;;8.90;99.90;;;;;;5070221;28;20470;-46
2022/05/03 02:49:16;;;;;;;2.70;2.50;;;9.00;99.90;;;;;;5070136;28;20448;-48
2022/05/03 02:52:03;;;;;;;2.83;2.60;;;9.10;99.90;;;;;;5070960;28;20563;-43
2022/05/03 02:54:43;;;;;;;6.37;3.03;;;9.00;99.90;;;;;;5070939;28;20879;-44
2022/05/03 02:57:29;;;;;;;3.63;3.20;;;9.00;99.90;;;;;;5071104;28;20527;-46
2022/05/03 03:03:05;;;;;;;2.93;2.30;;;9.00;99.90;;;;;;5070998;28;20939;-46
2022/05/03 03:05:38;;;;;;;2.67;2.33;;;9.20;99.90;;;;;;5070984;28;20503;-42
2022/05/03 03:08:05;;;;;;;3.40;2.60;;;9.20;99.90;;;;;;5071347;28;20533;-49
2022/05/03 03:10:38;;;;;;;2.93;2.63;;;9.20;99.90;;;;;;5070953;28;20476;-43
2022/05/03 03:13:13;;;;;;;3.97;2.87;;;9.20;99.90;;;;;;5070755;28;20479;-43
2022/05/03 03:15:41;;;;;;;4.13;3.37;;;9.10;99.90;;;;;;5070996;28;20528;-43
2022/05/03 03:18:13;;;;;;;3.23;2.80;;;9.10;99.90;;;;;;5071507;28;20506;-44
2022/05/03 03:20:45;;;;;;;3.30;2.87;;;8.50;99.90;;;;;;5071106;28;20436;-44
2022/05/03 03:23:15;;;;;;;3.90;2.73;;;7.80;99.90;;;;;;5070684;28;20481;-49
2022/05/03 03:25:43;;;;;;;3.23;2.93;;;7.50;99.90;;;;;;5074654;28;20440;-44
2022/05/03 03:28:13;;;;;;;4.90;2.70;;;7.40;99.90;;;;;;5074857;28;20447;-45
2022/05/03 03:30:42;;;;;;;4.03;3.37;;;7.60;99.90;;;;;;5074525;28;20996;-43
2022/05/03 03:33:10;;;;;;;3.77;2.83;;;7.80;99.90;;;;;;5074440;28;20451;-43
2022/05/03 03:35:38;;;;;;;5.17;2.90;;;8.10;99.90;;;;;;5074886;28;20444;-49
2022/05/03 03:38:06;;;;;;;3.80;2.50;;;8.20;99.90;;;;;;5074438;28;20436;-48
2022/05/03 03:40:34;;;;;;;4.37;3.07;;;8.30;99.90;;;;;;5074485;28;20474;-44
2022/05/03 03:43:01;;;;;;;3.40;2.80;;;8.20;99.90;;;;;;5074342;28;20440;-43
2022/05/03 03:45:28;;;;;;;5.50;3.60;;;8.40;99.90;;;;;;5074405;28;20464;-44
2022/05/03 03:47:56;;;;;;;4.73;3.90;;;8.40;99.90;;;;;;5074741;28;20501;-49
2022/05/03 03:50:26;;;;;;;2.77;2.57;;;8.40;99.90;;;;;;5074243;28;21075;-43
2022/05/03 03:52:53;;;;;;;4.53;3.27;;;8.60;99.90;;;;;;5074111;28;20444;-43
2022/05/03 03:55:22;;;;;;;3.60;3.30;;;8.60;99.90;;;;;;5074080;28;20488;-44
2022/05/03 03:57:51;;;;;;;3.40;3.00;;;8.50;99.90;;;;;;5074142;28;20479;-43
2022/05/03 04:00:19;;;;;;;4.50;3.73;;;8.50;99.90;;;;;;5074308;28;20467;-45
2022/05/03 04:02:47;;;;;;;4.60;3.00;;;8.60;99.90;;;;;;5073737;28;20528;-44
2022/05/03 04:05:16;;;;;;;2.80;2.60;;;8.60;99.90;;;;;;5074120;28;21031;-44
2022/05/03 04:07:43;;;;;;;3.80;3.00;;;8.60;99.90;;;;;;5074271;28;20437;-44
2022/05/03 04:10:10;;;;;;;3.30;3.00;;;8.70;99.90;;;;;;5074007;28;20441;-44
2022/05/03 04:12:39;;;;;;;4.87;3.57;;;8.70;99.90;;;;;;5073955;28;20479;-47
2022/05/03 04:15:07;;;;;;;3.33;2.60;;;8.70;99.90;;;;;;5073766;28;20538;-44
2022/05/03 04:17:34;;;;;;;3.27;2.97;;;8.70;99.90;;;;;;5073808;28;20449;-43
2022/05/03 04:20:01;;;;;;;5.27;3.33;;;8.70;99.90;;;;;;5073839;28;20506;-43
2022/05/03 04:22:30;;;;;;;7.10;5.23;;;8.80;99.90;;;;;;5073706;28;20437;-43
2022/05/03 04:24:57;;;;;;;3.97;3.47;;;8.70;99.90;;;;;;5073823;28;20468;-44
2022/05/03 04:27:26;;;;;;;5.73;5.20;;;8.60;99.90;;;;;;5073708;28;20530;-43
2022/05/03 04:29:55;;;;;;;3.57;3.27;;;8.60;99.90;;;;;;5073554;28;20462;-43
2022/05/03 04:32:23;;;;;;;3.90;3.53;;;8.70;99.90;;;;;;5073180;28;20512;-48
2022/05/03 04:34:50;;;;;;;5.27;3.80;;;8.70;99.90;;;;;;5073614;28;20518;-43
2022/05/03 04:37:17;;;;;;;3.87;3.07;;;8.50;99.90;;;;;;5072992;28;20437;-44
2022/05/03 04:39:44;;;;;;;4.57;3.10;;;8.40;99.90;;;;;;5073461;28;20533;-43
2022/05/03 04:42:12;;;;;;;4.17;3.67;;;8.40;99.90;;;;;;5073106;28;20447;-46
2022/05/03 04:44:39;;;;;;;5.07;4.57;;;8.40;99.90;;;;;;5073209;28;21022;-48
2022/05/03 04:47:07;;;;;;;4.00;3.57;;;8.50;99.90;;;;;;5073312;28;20479;-45
2022/05/03 04:49:35;;;;;;;4.70;3.50;;;8.70;99.90;;;;;;5073226;28;20937;-43
2022/05/03 04:52:02;;;;;;;6.13;3.30;;;8.80;99.90;;;;;;5072186;28;20450;-45
2022/05/03 04:54:29;;;;;;;3.87;3.40;;;8.50;99.90;;;;;;5073124;28;20267;-44
2022/05/03 04:56:59;;;;;;;3.70;2.93;;;8.20;99.90;;;;;;5073315;28;20527;-48
2022/05/03 04:59:26;;;;;;;3.40;3.10;;;8.10;99.90;;;;;;5073228;28;20476;-45
2022/05/03 05:01:53;;;;;;;4.00;3.60;;;8.20;99.90;;;;;;5072999;28;20475;-44
2022/05/03 05:04:22;;;;;;;4.93;3.30;;;8.50;99.90;;;;;;5072757;28;20599;-43
2022/05/03 05:06:49;;;;;;;3.40;3.07;;;8.70;99.90;;;;;;5073065;28;20464;-45
2022/05/03 05:09:16;;;;;;;4.60;4.03;;;8.80;99.90;;;;;;5073045;28;20445;-44
2022/05/03 05:11:43;;;;;;;5.23;3.70;;;8.60;99.90;;;;;;5072904;28;20472;-44
2022/05/03 05:14:09;;;;;;;4.77;3.10;;;8.10;99.90;;;;;;5072507;28;20495;-44
2022/05/03 05:16:36;;;;;;;3.40;3.10;;;8.10;99.90;;;;;;5072905;28;20540;-44
2022/05/03 05:19:03;;;;;;;14.80;5.60;;;8.30;99.90;;;;;;5072590;28;20449;-46
2022/05/03 05:21:32;;;;;;;3.77;3.00;;;8.50;99.90;;;;;;5072933;28;20445;-44
2022/05/03 05:24:00;;;;;;;3.93;3.40;;;8.70;99.90;;;;;;5072301;28;20505;-44
2022/05/03 05:26:27;;;;;;;4.90;3.47;;;8.80;99.90;;;;;;5072817;28;20480;-43
2022/05/03 05:28:54;;;;;;;3.80;3.37;;;9.00;99.90;;;;;;5072605;28;20486;-43
2022/05/03 05:31:21;;;;;;;6.20;5.60;;;9.10;99.90;;;;;;5072181;28;20483;-44
2022/05/03 05:33:47;;;;;;;5.30;4.27;;;9.20;99.90;;;;;;5072224;28;20460;-44
2022/05/03 05:36:14;;;;;;;5.50;5.00;;;9.20;99.90;;;;;;5072071;28;20448;-46
2022/05/03 05:38:43;;;;;;;10.70;5.33;;;9.30;99.90;;;;;;5072155;28;20472;-43
2022/05/03 05:41:13;;;;;;;5.60;5.10;;;9.30;99.90;;;;;;5072332;28;20899;-44
2022/05/03 05:43:41;;;;;;;5.27;4.50;;;9.40;99.90;;;;;;5071878;28;20464;-43
2022/05/03 05:46:08;;;;;;;34.93;31.13;;;9.30;99.90;;;;;;5072164;28;20569;-43
2022/05/03 05:48:35;;;;;;;14.57;5.93;;;9.40;99.90;;;;;;5070918;28;20476;-47
2022/05/03 05:51:02;;;;;;;4.67;3.60;;;9.30;99.90;;;;;;5071882;28;20475;-44
2022/05/03 05:53:34;;;;;;;6.90;4.93;;;9.50;99.90;;;;;;5071749;28;20492;-43
2022/05/03 05:56:04;;;;;;;4.37;3.93;;;9.60;99.90;;;;;;5072038;28;20483;-47
2022/05/03 05:58:31;;;;;;;8.97;7.00;;;9.60;99.90;;;;;;5071979;28;20474;-43
2022/05/03 06:00:58;;;;;;;7.00;6.30;;;9.60;99.90;;;;;;5072019;28;20440;-45
2022/05/03 06:03:27;;;;;;;7.77;6.33;;;9.60;99.90;;;;;;5071572;28;20437;-43
2022/05/03 06:05:54;;;;;;;5.73;5.07;;;9.60;99.90;;;;;;5146738;22;20844;-45
2022/05/03 06:08:21;;;;;;;6.33;5.30;;;9.70;99.90;;;;;;5092124;28;20443;-45
2022/05/03 06:10:49;;;;;;;5.63;3.63;;;9.70;99.90;;;;;;5091949;28;20729;-45
2022/05/03 06:13:17;;;;;;;3.87;3.40;;;9.80;99.90;;;;;;5091806;28;20489;-45
2022/05/03 06:15:45;;;;;;;4.23;3.57;;;9.80;99.90;;;;;;5091931;28;20491;-45
2022/05/03 06:18:13;;;;;;;3.80;3.30;;;10.00;99.90;;;;;;5091930;28;20522;-46
2022/05/03 06:20:40;;;;;;;6.60;4.30;;;10.10;99.90;;;;;;5091547;28;20477;-45
2022/05/03 06:23:07;;;;;;;5.00;4.07;;;10.10;99.90;;;;;;5091324;28;20927;-45
2022/05/03 06:25:33;;;;;;;5.63;4.20;;;10.20;99.90;;;;;;5091977;28;20505;-45
2022/05/03 06:28:00;;;;;;;6.10;4.90;;;10.20;99.90;;;;;;5091802;28;20478;-45
2022/05/03 06:30:31;;;;;;;4.40;4.00;;;10.40;99.90;;;;;;5091511;28;20447;-45
2022/05/03 06:32:57;;;;;;;6.10;4.20;;;10.50;99.90;;;;;;5091257;28;21017;-45
2022/05/03 06:35:24;;;;;;;5.60;5.20;;;10.50;99.90;;;;;;5091216;28;20466;-46
2022/05/03 06:37:51;;;;;;;6.53;5.47;;;10.20;99.90;;;;;;5091635;28;20439;-45
2022/05/03 06:40:18;;;;;;;5.80;4.57;;;10.40;99.90;;;;;;5091922;28;20440;-45
2022/05/03 06:42:45;;;;;;;5.17;4.67;;;10.20;99.90;;;;;;5091723;28;20531;-45
2022/05/03 06:45:12;;;;;;;6.47;4.43;;;10.30;99.90;;;;;;5091578;28;20498;-45
2022/05/03 06:47:41;;;;;;;4.57;4.17;;;10.40;99.90;;;;;;5091325;28;20451;-46
2022/05/03 06:50:10;;;;;;;4.60;3.43;;;10.30;99.90;;;;;;5091193;28;20483;-46
2022/05/03 06:52:37;;;;;;;6.07;5.30;;;10.30;99.90;;;;;;5091053;28;20565;-45
2022/05/03 06:55:05;;;;;;;8.20;5.33;;;10.40;99.90;;;;;;5091491;28;20487;-45
2022/05/03 06:57:32;;;;;;;7.40;5.77;;;10.50;99.90;;;;;;5091563;28;20805;-45
2022/05/03 07:00:02;;;;;;;6.60;5.97;;;10.50;99.90;;;;;;5090970;28;20812;-45
2022/05/03 07:02:31;;;;;;;7.33;5.33;;;10.70;99.90;;;;;;5091060;28;20526;-45
2022/05/03 07:05:00;;;;;;;13.83;7.90;;;10.80;99.90;;;;;;5091158;28;20572;-45
2022/05/03 07:07:27;;;;;;;5.57;5.07;;;10.80;99.90;;;;;;5091295;28;20442;-45
2022/05/03 07:09:54;;;;;;;5.03;4.50;;;10.90;99.90;;;;;;5091168;28;20530;-45
2022/05/03 07:12:21;;;;;;;7.43;5.07;;;11.00;99.90;;;;;;5090994;28;20561;-45
2022/05/03 07:14:49;;;;;;;4.47;4.07;;;11.10;99.90;;;;;;5091059;28;20544;-45
2022/05/03 07:22:47;;;;;;;5.93;4.60;;;11.60;99.90;;;;;;5049347;28;20464;-45
2022/05/03 07:25:16;;;;;;;6.97;4.33;;;11.70;99.90;;;;;;5090984;28;20463;-45
2022/05/03 07:27:43;;;;;;;3.13;2.83;;;11.80;99.90;;;;;;5091035;28;20440;-45
2022/05/03 07:30:11;;;;;;;2.97;2.40;;;11.90;99.90;;;;;;5090824;28;20539;-45
2022/05/03 07:32:38;;;;;;;3.50;3.20;;;12.10;99.90;;;;;;5090671;28;20479;-46
2022/05/03 07:35:06;;;;;;;4.53;3.10;;;12.20;99.90;;;;;;5091388;28;20513;-45
2022/05/03 07:37:33;;;;;;;3.63;2.90;;;12.40;99.90;;;;;;5091365;28;20446;-46
2022/05/03 07:40:01;;;;;;;3.30;2.70;;;12.60;99.90;;;;;;5090942;28;20872;-45
2022/05/03 07:42:28;;;;;;;2.87;2.57;;;12.70;99.90;;;;;;5090735;28;20475;-45
2022/05/03 07:44:55;;;;;;;3.50;2.60;;;12.90;99.90;;;;;;5090606;28;20518;-46
2022/05/03 07:47:21;;;;;;;33.57;6.93;;;13.10;99.90;;;;;;5088447;28;20496;-48
2022/05/03 07:49:48;;;;;;;3.30;2.90;;;13.30;99.90;;;;;;5090563;28;20958;-45
2022/05/03 07:52:15;;;;;;;6.43;2.57;;;13.90;99.90;;;;;;5090432;28;20821;-46
2022/05/03 07:54:43;;;;;;;8.83;2.60;;;14.90;99.90;;;;;;5090824;28;20463;-46
2022/05/03 07:57:12;;;;;;;11.40;3.60;;;15.70;99.90;;;;;;5090752;28;20475;-46
2022/05/03 07:59:39;;;;;;;2.60;2.40;;;15.70;99.90;;;;;;5090439;28;20471;-46
2022/05/03 08:02:07;;;;;;;4.33;2.47;;;15.80;99.90;;;;;;5089684;28;20771;-48
2022/05/03 08:04:34;;;;;;;3.77;3.10;;;15.50;99.90;;;;;;5090513;28;20490;-47
2022/05/03 08:07:01;;;;;;;5.40;3.67;;;15.80;99.90;;;;;;5090720;28;20509;-46
2022/05/03 08:09:28;;;;;;;21.80;5.90;;;15.90;99.90;;;;;;5090563;28;20451;-46
2022/05/03 08:11:55;;;;;;;2.90;2.70;;;15.60;99.90;;;;;;5092625;28;21055;-45
2022/05/03 08:14:23;;;;;;;2.80;2.53;;;15.60;99.90;;;;;;5093770;28;20523;-46
2022/05/03 08:16:50;;;;;;;4.90;3.97;;;15.90;99.90;;;;;;5094090;28;20477;-46
2022/05/03 08:19:17;;;;;;;13.10;3.97;;;16.20;99.90;;;;;;5093013;28;20443;-46
2022/05/03 08:21:44;;;;;;;3.13;2.70;;;16.70;99.90;;;;;;5093061;28;20432;-46
2022/05/03 08:24:11;;;;;;;7.40;3.50;;;16.80;99.90;;;;;;5093492;28;20459;-46
2022/05/03 08:26:38;;;;;;;4.10;3.03;;;16.50;99.90;;;;;;5093959;28;20443;-46
2022/05/03 08:29:05;;;;;;;3.77;2.83;;;16.10;99.90;;;;;;5093729;28;20484;-45
2022/05/03 08:31:33;;;;;;;2.73;2.53;;;15.90;99.90;;;;;;5093904;28;20439;-46
2022/05/03 08:34:02;;;;;;;2.77;2.57;;;16.00;99.90;;;;;;5093594;28;20530;-46
2022/05/03 08:36:29;;;;;;;3.03;2.63;;;16.10;99.90;;;;;;5093734;28;20497;-46
2022/05/03 08:44:25;;;;;;;6.60;3.43;;;15.80;99.90;;;;;;5093083;28;20455;-46
2022/05/03 08:46:55;;;;;;;3.00;2.70;;;15.90;99.90;;;;;;5093796;28;20431;-46
2022/05/03 08:49:25;;;;;;;2.87;2.53;;;16.10;99.90;;;;;;5093578;28;20927;-46
2022/05/03 08:51:53;;;;;;;4.23;2.67;;;16.60;99.90;;;;;;5093614;28;20483;-45
2022/05/03 08:54:21;;;;;;;4.43;3.43;;;16.80;99.90;;;;;;5093476;28;20520;-46
2022/05/03 08:56:49;;;;;;;5.03;2.60;;;16.70;99.90;;;;;;5093259;28;20452;-46
2022/05/03 08:59:16;;;;;;;3.23;2.93;;;16.80;99.90;;;;;;5093527;28;20499;-46
2022/05/03 09:01:43;;;;;;;7.10;4.93;;;16.90;99.90;;;;;;5092913;28;20811;-46
2022/05/03 09:04:11;;;;;;;65.23;10.40;;;16.90;99.90;;;;;;5092959;28;20521;-46
2022/05/03 09:06:45;;;;;;;4.07;2.90;;;16.90;99.90;;;;;;5093366;28;20439;-46
2022/05/03 09:09:13;;;;;;;3.20;2.90;;;16.90;99.90;;;;;;5093166;28;20526;-47
2022/05/03 09:11:46;;;;;;;5.50;2.90;;;17.00;99.90;;;;;;5093156;28;20449;-46
2022/05/03 09:14:14;;;;;;;24.03;7.13;;;17.20;99.90;;;;;;5091565;28;20495;-46
2022/05/03 09:16:51;;;;;;;40.43;7.67;;;17.60;99.90;;;;;;5091102;28;20924;-46
2022/05/03 09:19:26;;;;;;;15.47;4.03;;;17.70;99.90;;;;;;5092549;28;20495;-46
2022/05/03 09:24:53;;;;;;;64.10;10.00;;;18.00;99.90;;;;;;5092539;28;20530;-46
2022/05/03 09:27:22;;;;;;;3.73;2.90;;;18.10;99.90;;;;;;5090988;28;21026;-46
2022/05/03 09:30:06;;;;;;;6.37;3.97;;;17.80;99.90;;;;;;5092682;28;20618;-46
2022/05/03 09:32:37;;;;;;;15.53;4.97;;;17.70;99.90;;;;;;5092542;28;20618;-46
2022/05/03 09:35:07;;;;;;;6.03;3.53;;;17.70;99.90;;;;;;5092468;28;20460;-46
2022/05/03 09:37:42;;;;;;;5.83;4.70;;;17.80;99.90;;;;;;5092949;28;20447;-46
2022/05/03 09:40:12;;;;;;;8.17;3.80;;;17.70;99.90;;;;;;5092618;28;20439;-46
2022/05/03 09:42:40;;;;;;;3.03;2.73;;;17.70;99.90;;;;;;5092505;28;20532;-46
2022/05/03 09:45:09;;;;;;;4.80;2.63;;;17.60;99.90;;;;;;5092316;28;20550;-46
2022/05/03 09:47:49;;;;;;;5.13;3.40;;;17.40;99.90;;;;;;5092458;28;20435;-46
2022/05/03 09:50:28;;;;;;;15.30;5.00;;;17.50;99.90;;;;;;5092462;28;20891;-46
2022/05/03 09:52:56;;;;;;;5.80;3.50;;;17.90;99.90;;;;;;5092196;28;20475;-46
2022/05/03 09:55:30;;;;;;;3.63;3.17;;;18.00;99.90;;;;;;5092367;28;20467;-46
2022/05/03 09:58:01;;;;;;;16.63;4.87;;;17.70;99.90;;;;;;5091979;28;20443;-46
2022/05/03 10:00:28;;;;;;;13.03;4.40;;;17.90;99.90;;;;;;5092564;28;20485;-46
2022/05/03 10:02:55;;;;;;;3.50;3.20;;;17.60;99.90;;;;;;5091852;28;20431;-46
2022/05/03 10:05:23;;;;;;;3.60;3.30;;;17.70;99.90;;;;;;5091548;28;20516;-46
2022/05/03 10:07:52;;;;;;;5.10;3.10;;;17.60;99.90;;;;;;5091770;28;20539;-45
2022/05/03 10:10:20;;;;;;;7.10;3.97;;;17.40;99.90;;;;;;5091940;28;20444;-46
2022/05/03 10:12:49;;;;;;;3.57;3.23;;;17.40;99.90;;;;;;5091804;28;20987;-46
2022/05/03 10:20:51;;;;;;;5.40;3.47;;;17.20;99.90;;;;;;5091911;28;20435;-46
2022/05/03 10:23:23;;;;;;;5.10;2.70;;;17.40;99.90;;;;;;5091506;28;21005;-46
2022/05/03 10:25:55;;;;;;;4.10;2.63;;;17.20;99.90;;;;;;5092010;28;20504;-45
2022/05/03 10:28:22;;;;;;;3.40;3.10;;;17.20;99.90;;;;;;5091928;28;20463;-46
2022/05/03 10:31:09;;;;;;;3.70;3.07;;;17.40;99.90;;;;;;5091501;28;20526;-45
2022/05/03 10:33:40;;;;;;;5.57;3.13;;;17.40;99.90;;;;;;5090848;28;20953;-46
2022/05/03 10:36:43;;;;;;;3.03;2.60;;;17.40;99.90;;;;;;5091615;28;20914;-46
2022/05/03 10:39:22;;;;;;;3.07;2.77;;;17.10;99.90;;;;;;5089026;28;20443;-48
2022/05/03 10:41:57;;;;;;;4.07;3.60;;;17.20;99.90;;;;;;5090069;28;20879;-46
2022/05/03 10:44:44;;;;;;;2.73;2.53;;;17.50;99.90;;;;;;5088940;28;20902;-46
2022/05/03 10:47:13;;;;;;;6.67;3.33;;;17.30;99.90;;;;;;5089279;28;20948;-46
2022/05/03 10:50:17;;;;;;;3.63;3.23;;;17.30;99.90;;;;;;5090371;28;20467;-46
2022/05/03 10:52:46;;;;;;;3.53;2.97;;;17.40;99.90;;;;;;5090590;28;20485;-46
2022/05/03 10:55:16;;;;;;;75.30;9.30;;;17.30;99.90;;;;;;5090266;28;20467;-47
2022/05/03 10:58:17;;;;;;;5.00;2.90;;;17.30;99.90;;;;;;5090806;28;20505;-46
2022/05/03 11:01:07;;;;;;;4.37;3.97;;;17.40;99.90;;;;;;5090132;28;20478;-46
2022/05/03 11:03:35;;;;;;;8.57;4.43;;;17.50;99.90;;;;;;5090521;28;20443;-47
2022/05/03 11:06:38;;;;;;;5.43;3.33;;;17.60;99.90;;;;;;5090747;28;20468;-47
2022/05/03 11:09:09;;;;;;;203.07;32.33;;;17.70;99.90;;;;;;5080720;28;20482;-45
2022/05/03 11:11:54;;;;;;;5.43;3.37;;;17.60;99.90;;;;;;5090963;28;20843;-46
2022/05/03 11:14:49;;;;;;;10.93;4.27;;;17.60;99.90;;;;;;5090580;28;20537;-46
2022/05/03 11:17:17;;;;;;;6.10;3.60;;;17.80;99.90;;;;;;5090499;28;20450;-46
2022/05/03 11:19:53;;;;;;;6.33;3.37;;;18.00;99.90;;;;;;5091033;28;20522;-46
2022/05/03 11:22:22;;;;;;;3.40;3.10;;;18.20;99.90;;;;;;5091134;28;20466;-46
2022/05/03 11:24:50;;;;;;;2.67;2.47;;;18.20;98.00;;;;;;5090968;28;20487;-46
2022/05/03 11:27:19;;;;;;;8.20;3.60;;;18.20;98.80;;;;;;5090648;28;20478;-46
2022/05/03 11:29:47;;;;;;;3.43;2.73;;;18.50;99.60;;;;;;5091164;28;20471;-47
2022/05/03 11:32:15;;;;;;;8.07;4.80;;;18.80;99.90;;;;;;5090888;28;20789;-47
2022/05/03 11:34:44;;;;;;;4.73;3.00;;;19.10;99.90;;;;;;5090737;28;20574;-46
2022/05/03 11:37:11;;;;;;;7.90;3.40;;;19.20;99.20;;;;;;5091040;28;20771;-46
2022/05/03 11:39:39;;;;;;;2.70;2.23;;;19.10;97.20;;;;;;5090699;28;20527;-47
2022/05/03 11:42:09;;;;;;;30.07;5.17;;;19.10;99.60;;;;;;5090862;28;20828;-46
2022/05/03 11:44:42;;;;;;;13.43;3.90;;;19.00;99.10;;;;;;5091394;28;20487;-46
2022/05/03 11:47:10;;;;;;;9.73;8.07;;;19.10;99.90;;;;;;5094843;28;20860;-46
2022/05/03 11:49:37;;;;;;;9.80;4.70;;;19.10;98.30;;;;;;5094746;28;20471;-47
2022/05/03 11:57:36;;;;;;;14.53;9.93;;;18.90;99.90;;;;;;5094584;28;20476;-46
2022/05/03 12:00:07;;;;;;;8.43;5.33;;;18.80;98.80;;;;;;5094512;28;21069;-46
2022/05/03 12:02:36;;;;;;;6.50;2.90;;;18.70;99.90;;;;;;5094526;28;20475;-45
2022/05/03 12:05:14;;;;;;;6.20;2.17;;;18.60;98.50;;;;;;5146723;22;21008;-44
2022/05/03 12:07:43;;;;;;;2.70;1.73;;;18.50;93.90;;;;;;5072344;28;20439;-45
2022/05/03 12:10:19;;;;;;;9.13;2.30;;;18.40;94.40;;;;;;5073995;28;20444;-44
2022/05/03 12:12:47;;;;;;;15.10;2.50;;;18.30;99.90;;;;;;5073526;28;20956;-49
2022/05/03 12:15:20;;;;;;;7.73;2.03;;;18.30;95.00;;;;;;5073384;28;20464;-44
2022/05/03 12:17:59;;;;;;;5.10;2.00;;;18.10;94.20;;;;;;5073032;28;20532;-46
2022/05/03 12:20:29;;;;;;;2.77;1.90;;;18.10;92.70;;;;;;5072896;28;20525;-44
2022/05/03 12:23:09;;;;;;;4.00;2.10;;;18.00;96.90;;;;;;5072692;28;20490;-44
2022/05/03 12:25:36;;;;;;;2.70;1.90;;;18.00;94.00;;;;;;5072905;28;20871;-44
2022/05/03 12:28:05;;;;;;;10.13;4.30;;;18.10;95.50;;;;;;5072763;28;20476;-46
2022/05/03 12:30:33;;;;;;;1.80;1.70;;;18.10;93.70;;;;;;5072832;28;20447;-48
2022/05/03 12:33:05;;;;;;;1.90;1.40;;;18.10;95.30;;;;;;5072378;28;21008;-47
2022/05/03 12:35:34;;;;;;;3.20;1.60;;;18.20;96.90;;;;;;5072211;28;20461;-41
2022/05/03 12:38:09;;;;;;;264.07;32.67;;;18.40;91.50;;;;;;5072709;28;20510;-44
2022/05/03 12:40:44;;;;;;;2.47;1.60;;;18.50;90.80;;;;;;5072011;28;20440;-50
2022/05/03 12:43:14;;;;;;;3.23;1.83;;;18.40;87.90;;;;;;5072453;28;20447;-45
2022/05/03 12:45:42;;;;;;;2.37;1.80;;;18.50;84.90;;;;;;5071890;28;20464;-46
2022/05/03 12:48:10;;;;;;;3.23;1.60;;;18.70;90.40;;;;;;5070947;28;21035;-45
2022/05/03 12:50:38;;;;;;;6.00;2.03;;;18.70;84.40;;;;;;5071699;28;20447;-47
2022/05/03 12:53:05;;;;;;;18.77;2.97;;;19.00;85.00;;;;;;5072291;28;20848;-48
2022/05/03 12:55:32;;;;;;;6.40;2.07;;;19.00;91.80;;;;;;5072252;28;20491;-44
2022/05/03 13:00:45;;;;;;;2.00;1.60;;;19.20;84.50;;;;;;5072171;28;20416;-44
2022/05/03 13:03:12;;;;;;;6.13;2.23;;;19.20;89.60;;;;;;5072272;28;20482;-49
2022/05/03 13:05:39;;;;;;;5.33;2.00;;;19.30;85.60;;;;;;5071983;28;20480;-44
2022/05/03 13:08:07;;;;;;;6.80;2.17;;;19.20;86.10;;;;;;5071825;28;20446;-43
2022/05/03 13:10:34;;;;;;;3.03;1.70;;;19.30;82.60;;;;;;5072026;28;20444;-48
2022/05/03 13:13:03;;;;;;;2.43;1.90;;;19.30;83.60;;;;;;5072676;28;20527;-45
2022/05/03 13:15:31;;;;;;;8.40;7.53;;;19.40;81.30;;;;;;5073103;28;20498;-44
2022/05/03 13:17:59;;;;;;;3.10;1.70;;;19.40;81.80;;;;;;5072695;28;20535;-44
2022/05/03 13:20:27;;;;;;;3.80;1.87;;;19.30;78.00;;;;;;5072826;28;20444;-44
2022/05/03 13:22:54;;;;;;;5.57;2.40;;;19.30;75.30;;;;;;5072521;28;20444;-44
2022/05/03 13:25:21;;;;;;;3.80;1.93;;;19.30;76.60;;;;;;5071426;28;20897;-44
2022/05/03 13:27:49;;;;;;;11.80;3.20;;;19.30;81.10;;;;;;5072754;28;20476;-44
2022/05/03 13:30:16;;;;;;;8.40;2.30;;;19.40;81.90;;;;;;5072315;28;20816;-44
2022/05/03 13:32:43;;;;;;;24.93;4.20;;;19.50;81.80;;;;;;5072436;28;20478;-44
2022/05/03 13:35:11;;;;;;;2.80;2.00;;;19.50;83.00;;;;;;5072225;28;20855;-44
2022/05/03 13:40:34;;;;;;;9.13;2.60;;;19.40;90.10;;;;;;5072012;28;20506;-46
2022/05/03 13:43:04;;;;;;;9.60;4.00;;;19.50;86.60;;;;;;5072121;28;20795;-44
2022/05/03 13:45:32;;;;;;;7.33;2.60;;;19.50;86.40;;;;;;5072190;28;20983;-44